Página principal
METAR-TAF:

METAR-TAF

Aeroportos :

Aeroporto Internacional de Xangai Pudong

Xangai-Pudong, China

latitude: 31-07N, longitude: 121-46E, altura: 4 m

Observação actual do tempo

O boletim foi feito há 27 minutos, às 09:00 UTC
Vento 8 kt de norte, variando entre nor-noroeste e nor-nordeste
Temperatura 24°C
Humidade 78%
Pressão 1009 hPa
Visibilidade 10 km ou mais
Nuvens dispersasa uma altura de 2000 ft

METAR: ZSPD 270900Z 36004MPS 330V030 9999 SCT020 24/20 Q1009 NOSIG

Hora: 17:27 (09:27 UTC)

Previsão

O boletim foi feito há 6 horas e 8 minutos, às 03:19 UTC
Previsão válida de 27 às 06 UTC a 28 às 06 UTC
Vento 6 kt de es-sudeste
Visibilidade: 5000 m
Nuvens fragmentadasa uma altura de 1100 ft
neblina

TAF: ZSPD 270319Z 2706/2806 12003MPS 5000 BR BKN011 TX23/2706Z TN18/2721Z

Observações e previsões do tempo de mais de 4000 aeroportos (mensagens METAR e TAF).

As estações disponíveis são os pontos amarelos e vermelhos sobre o mapa.

Mova o rato sobre o mapa para ver o nome da estação.

Depois clique no ponto para visualizar as observações e previsões meteorológicas.

Para alterar o mapa : clique nos botões verdes com uma cruz preta para aumentar o zoom; no botão verde com uma pitada de zoom; ou nas setas verdes para mapas adjacentes.


METAR-TAF: